MET'MAP v2.0
soon released !

Expected late october,
this new version will be
more efficient, smarter,
and hosted on a brand new
server x3 powerfull...
...and still free !


Not compatible ?
Try the mobile version !

LOG IN : | Subscribe | Disclaimer | Who is Orbifly ? |
ICAO code :
Legend : VFR Marginal VFR IFR Intensive IFR Very Intensive IFR
Visi :
Ceiling :
>= 8 km
>= 3000ft
5 to 8 km
1000 to 3000 ft
1500m to 5 km
500 to 1000 ft
800 to 1500m
200 to 500 ft
< 800m
< 200 ft

METAR - EGWU RAF Northolt - 24 Oct 2020 19:14 UTC
Data Sources :     NOAA   


- Airport Elevation : 124 ft
- IATA code : NHT
- No reported NOTAMs.


EGWU - RAF Northolt

Latest METAR recorded : 2015/08/11 07:50 EGWU 110750Z 06001KT 9999 FEW016 OVC180 16/11 Q1019 BLU NOSIG
TAF TAF EGWU
Valid from the 24 at 15:00 until the 25 at 09:00 UTC


241330Z 2415/2509 20020G32KT 9999 SCT010 BKN018
BECMG 2415/2417 FEW018 BKN030
TEMPO 2415/2424 7000 RA BKN018
BECMG 2417/2419 22014KT
PROB30
TEMPO 2417/2419 3000 +RA BKN014
PROB30
TEMPO 2419/2424 23017G27KT 4000 SHRA BKN014

Source NOAA


MET'MAP, your aeronautical weather chart ! - Copyright ORBIFLY December 2007

Programming & Development : Alexandra Zaïnal
Co-Developer : Marc-Olivier Méhu
Technical & hardware support : Manuel Goepfert
Concept & Financing : Baudouin d'Aumeries